Aérodrome :
LOGIN :

S'inscrire | Disclaimer

   EN    FR    IT 

 










Légende :    VFR   VFR Marginal   IFR   IFR Intensif   IFR Très Intensif
Visi : 
Plafond : 
>= 8 km
>= 3000ft
5 à 8 km
1000 à 3000 ft
1500m à 5 km
500 à 1000 ft
800 à 1500m
200 à 500 ft
< 800m
< 200 ft
Symboles :   Orages  Brouillard  Fortes neiges  Fortes précipitations  Vent > 20 kt
SIGMETs :   Divers  Orages  Givrage  Turbulence  Onde Orograph.  Cendres Volcan.







- Altitude de l'aérodrome : 1247 ft
- Code IATA : PRG


LKPR - Praha Ruzyne

DERNIER METAR :
  • 171700Z 12008KT 9999 FEW043 24/18 Q1018 NOSIG

METARs EXPIRÉS :
  • 171630Z 11008KT 9999 FEW043 24/18 Q1018 NOSIG
  • 171600Z 11009KT 9999 FEW043 25/17 Q1018 NOSIG
  • 171530Z 12008KT 9999 FEW043 25/18 Q1018 NOSIG
  • 171500Z 13008KT 9999 FEW043 26/17 Q1018 NOSIG
  • 171430Z 13009KT 9999 FEW043 26/17 Q1018 NOSIG

TAF TAF LKPR
Valide du 17 à 12h jusqu'au 18 à 18h UTC


171100Z 1712/1818 14007KT 9999 SCT035
TEMPO 1716/1721 7000 SHRA SCT027TCU BKN035
BECMG 1720/1722 23008KT
BECMG 1808/1810 17010KT
Pas de NOTAMs connus pour ce terrain.



MET'MAP, la Météo Aéronautique d'un coup d'oeil ! - Copyright ORBIFLY Décembre 2007 - Disclaimer

ORBIFLY MET'MAP TEAM :

Programmation & Développement : Alexandra Zaïnal
Conception & Développement : Baudouin d'Aumeries
Co-Programmation & Développement : Marc-Olivier Méhu
Soutien technique & logistique : Manuel Goepfert

Contact : metmap@orbifly.com




SOURCES & CREDITS :

   NOAA